createdAt,value
2023-05-21T00:02:17.567Z,30.90
2023-05-21T00:04:45.565Z,30.90
2023-05-21T00:07:13.330Z,31.00
2023-05-21T00:09:41.064Z,31.00
2023-05-21T00:12:09.061Z,31.10
2023-05-21T00:14:36.803Z,31.10
2023-05-21T00:17:04.458Z,31.20
2023-05-21T00:19:32.691Z,31.30
2023-05-21T00:22:00.527Z,31.30
2023-05-21T00:24:28.295Z,31.40
2023-05-21T00:26:56.156Z,31.50
2023-05-21T00:29:24.131Z,31.60
2023-05-21T00:31:51.924Z,31.70
2023-05-21T00:34:20.014Z,31.70
2023-05-21T00:36:47.730Z,31.70
2023-05-21T00:39:15.416Z,31.80
2023-05-21T00:41:43.420Z,31.80
2023-05-21T00:44:11.168Z,31.90
2023-05-21T00:46:39.126Z,31.90
2023-05-21T00:49:07.315Z,32.00
2023-05-21T00:51:35.255Z,32.10
2023-05-21T00:54:02.962Z,32.10
2023-05-21T00:56:31.171Z,32.10
2023-05-21T00:58:59.207Z,32.20
2023-05-21T01:01:26.973Z,32.20
2023-05-21T01:03:54.894Z,32.30
2023-05-21T01:06:23.416Z,32.30
2023-05-21T01:08:51.481Z,32.40
2023-05-21T01:11:20.357Z,32.40
2023-05-21T01:13:53.366Z,32.50
2023-05-21T01:16:21.745Z,32.60
2023-05-21T01:18:49.672Z,32.60
2023-05-21T01:21:17.717Z,32.70
2023-05-21T01:23:45.975Z,32.80
2023-05-21T01:26:13.886Z,32.80
2023-05-21T01:28:41.640Z,32.90
2023-05-21T01:31:09.645Z,32.90
2023-05-21T01:33:37.566Z,33.00
2023-05-21T01:36:05.503Z,33.10
2023-05-21T01:38:34.620Z,33.10
2023-05-21T01:41:02.720Z,33.10
2023-05-21T01:43:30.496Z,33.20
2023-05-21T01:46:00.314Z,33.30
2023-05-21T01:48:27.988Z,33.40
2023-05-21T01:50:55.749Z,33.50
2023-05-21T01:53:23.710Z,33.50
2023-05-21T01:55:51.425Z,33.60
2023-05-21T01:58:19.163Z,33.70
2023-05-21T02:00:47.101Z,33.70
2023-05-21T02:03:15.760Z,33.80
2023-05-21T02:05:43.740Z,33.80
2023-05-21T02:08:11.763Z,33.90
2023-05-21T02:10:40.401Z,34.00
2023-05-21T02:13:08.320Z,33.90
2023-05-21T02:15:36.885Z,34.10
2023-05-21T02:18:05.005Z,34.10
2023-05-21T02:20:32.868Z,34.00
2023-05-21T02:23:01.181Z,34.10
2023-05-21T02:25:29.029Z,33.90
2023-05-21T02:27:56.972Z,34.10
2023-05-21T02:30:25.362Z,34.00
2023-05-21T02:32:53.369Z,34.30
2023-05-21T02:35:21.252Z,34.50
2023-05-21T02:37:49.174Z,34.60
2023-05-21T02:40:16.940Z,34.60
2023-05-21T02:42:44.620Z,34.70
2023-05-21T02:45:12.873Z,34.80
2023-05-21T02:47:40.716Z,34.80
2023-05-21T02:50:09.125Z,34.70
2023-05-21T02:52:37.069Z,34.60
2023-05-21T02:55:04.868Z,34.70
2023-05-21T02:57:33.171Z,35.00
2023-05-21T03:00:01.200Z,34.70
2023-05-21T03:02:29.563Z,34.60
2023-05-21T03:04:57.279Z,34.80
2023-05-21T03:07:25.134Z,35.00
2023-05-21T03:09:52.973Z,35.20
2023-05-21T03:12:20.656Z,35.40
2023-05-21T03:14:50.741Z,35.50
2023-05-21T03:17:18.938Z,35.60
2023-05-21T03:19:46.662Z,35.60
2023-05-21T03:22:15.616Z,35.50
2023-05-21T03:24:43.489Z,35.70
2023-05-21T03:27:11.432Z,35.80
2023-05-21T03:29:39.627Z,35.80
2023-05-21T03:32:07.554Z,36.10
2023-05-21T03:34:35.326Z,36.20
2023-05-21T03:37:03.603Z,36.10
2023-05-21T03:39:31.778Z,36.20
2023-05-21T03:41:59.505Z,36.20
2023-05-21T03:44:27.544Z,36.30
2023-05-21T03:46:55.267Z,36.20
2023-05-21T03:49:22.964Z,36.30
2023-05-21T03:51:51.932Z,36.50
2023-05-21T03:54:19.646Z,36.50
2023-05-21T03:56:47.365Z,36.50
2023-05-21T03:59:15.242Z,36.50
2023-05-21T04:01:42.943Z,36.70
2023-05-21T04:04:11.125Z,36.80
2023-05-21T04:06:39.225Z,36.80
2023-05-21T04:09:06.848Z,36.90
2023-05-21T04:11:34.568Z,37.00
2023-05-21T04:14:02.646Z,37.10
2023-05-21T04:16:30.624Z,37.20
2023-05-21T04:18:58.458Z,36.90
2023-05-21T04:21:26.527Z,37.00
2023-05-21T04:23:54.333Z,37.10
2023-05-21T04:26:22.073Z,37.40
2023-05-21T04:28:50.356Z,37.40
2023-05-21T04:31:18.910Z,37.30
2023-05-21T04:33:50.067Z,37.30
2023-05-21T04:36:18.576Z,37.60
2023-05-21T04:38:46.805Z,37.40
2023-05-21T04:41:14.761Z,37.40
2023-05-21T04:43:43.191Z,37.40
2023-05-21T04:46:11.500Z,37.50
2023-05-21T04:48:39.291Z,37.80
2023-05-21T04:51:07.313Z,37.80
2023-05-21T04:53:35.535Z,37.70
2023-05-21T04:56:03.578Z,37.90
2023-05-21T04:58:31.820Z,38.00
2023-05-21T05:00:59.703Z,38.00
2023-05-21T05:03:27.820Z,37.80
2023-05-21T05:05:58.178Z,38.00
2023-05-21T05:08:26.245Z,38.10
2023-05-21T05:10:54.271Z,38.20
2023-05-21T05:13:22.791Z,38.10
2023-05-21T05:15:54.642Z,38.00
2023-05-21T05:18:23.006Z,38.10
2023-05-21T05:20:51.418Z,37.90
2023-05-21T05:23:19.365Z,37.80
2023-05-21T05:25:47.676Z,38.00
2023-05-21T05:28:15.474Z,38.00
2023-05-21T05:30:43.397Z,38.00
2023-05-21T05:33:11.749Z,38.10
2023-05-21T05:35:39.553Z,38.10
2023-05-21T05:38:07.498Z,38.30
2023-05-21T05:40:35.733Z,38.60
2023-05-21T05:43:04.001Z,38.70
2023-05-21T05:45:34.888Z,38.70
2023-05-21T05:48:03.236Z,38.50
2023-05-21T05:50:31.498Z,38.60
2023-05-21T05:53:01.014Z,38.70
2023-05-21T05:55:28.926Z,38.90
2023-05-21T05:57:57.121Z,39.10
2023-05-21T06:00:25.174Z,39.10
2023-05-21T06:02:53.864Z,39.20
2023-05-21T06:05:22.274Z,39.10
2023-05-21T06:07:50.700Z,39.10
2023-05-21T06:10:19.026Z,38.90
2023-05-21T06:12:47.153Z,38.90
2023-05-21T06:15:15.029Z,39.00
2023-05-21T06:17:43.177Z,38.70
2023-05-21T06:20:11.893Z,38.90
2023-05-21T06:22:39.793Z,39.00
2023-05-21T06:25:07.775Z,38.90
2023-05-21T06:27:35.629Z,39.00
2023-05-21T06:30:03.356Z,38.70
2023-05-21T06:32:31.856Z,38.50
2023-05-21T06:34:59.976Z,38.40
2023-05-21T06:37:28.053Z,38.50
2023-05-21T06:39:56.078Z,38.70
2023-05-21T06:42:24.564Z,38.70
2023-05-21T06:44:52.492Z,38.70
2023-05-21T06:47:20.474Z,38.60
2023-05-21T06:49:48.712Z,38.60
2023-05-21T06:52:16.425Z,38.60
2023-05-21T06:54:44.190Z,38.90
2023-05-21T06:57:12.341Z,39.10
2023-05-21T06:59:40.151Z,39.20
2023-05-21T07:02:08.298Z,39.00
2023-05-21T07:04:41.355Z,38.70
2023-05-21T07:07:09.206Z,38.60
2023-05-21T07:09:36.914Z,38.60
2023-05-21T07:12:07.086Z,38.90
2023-05-21T07:14:34.942Z,39.00
2023-05-21T07:17:02.741Z,38.90
2023-05-21T07:19:30.629Z,38.60
2023-05-21T07:21:58.513Z,38.60
2023-05-21T07:24:26.384Z,38.40
2023-05-21T07:26:54.257Z,38.50
2023-05-21T07:29:22.261Z,38.40
2023-05-21T07:31:49.937Z,38.30
2023-05-21T07:34:17.845Z,38.10
2023-05-21T07:36:45.606Z,38.00
2023-05-21T07:39:22.432Z,38.00
2023-05-21T07:41:50.646Z,38.40
2023-05-21T07:44:19.292Z,38.80
2023-05-21T07:46:47.184Z,39.10
2023-05-21T07:49:15.179Z,39.10
2023-05-21T07:51:43.112Z,38.90
2023-05-21T07:54:11.769Z,38.70
2023-05-21T07:56:39.848Z,38.60
2023-05-21T07:59:07.669Z,38.30
2023-05-21T08:01:35.515Z,38.10
2023-05-21T08:04:03.970Z,38.10
2023-05-21T08:06:32.527Z,38.30
2023-05-21T08:09:00.323Z,38.60
2023-05-21T08:11:28.506Z,38.80
2023-05-21T08:13:56.396Z,39.00
2023-05-21T08:16:31.568Z,39.10
2023-05-21T08:18:59.535Z,39.10
2023-05-21T08:21:27.415Z,39.10
2023-05-21T08:23:55.119Z,39.20
2023-05-21T08:26:22.878Z,39.10
2023-05-21T08:28:50.767Z,39.20
2023-05-21T08:31:19.201Z,39.10
2023-05-21T08:33:46.966Z,39.10
2023-05-21T08:36:14.692Z,39.10
2023-05-21T08:38:42.826Z,39.00
2023-05-21T08:41:10.512Z,39.00
2023-05-21T08:43:38.395Z,39.00
2023-05-21T08:46:06.309Z,38.80
2023-05-21T08:48:34.140Z,38.80
2023-05-21T08:51:01.973Z,38.90
2023-05-21T08:53:30.128Z,39.10
2023-05-21T08:55:57.873Z,38.90
2023-05-21T08:58:25.598Z,38.80
2023-05-21T09:00:54.463Z,38.80
2023-05-21T09:03:22.189Z,38.90
2023-05-21T09:05:49.905Z,38.90
2023-05-21T09:08:18.041Z,38.90
2023-05-21T09:10:45.850Z,38.90
2023-05-21T09:13:13.587Z,38.90
2023-05-21T09:15:41.601Z,38.70
2023-05-21T09:18:09.750Z,38.60
2023-05-21T09:20:37.551Z,38.40
2023-05-21T09:23:05.705Z,38.40
2023-05-21T09:25:33.884Z,38.50
2023-05-21T09:28:01.963Z,38.60
2023-05-21T09:30:31.934Z,38.70
2023-05-21T09:33:02.004Z,38.70
2023-05-21T09:35:30.119Z,38.70
2023-05-21T09:37:57.843Z,38.60
2023-05-21T09:40:25.545Z,38.70
2023-05-21T09:42:53.634Z,38.70
2023-05-21T09:45:21.356Z,38.50
2023-05-21T09:47:49.108Z,38.40
2023-05-21T09:50:16.852Z,38.40
2023-05-21T09:52:44.622Z,38.40
2023-05-21T09:55:12.634Z,38.40
2023-05-21T09:57:40.502Z,38.40
2023-05-21T10:00:08.293Z,38.30
2023-05-21T10:02:36.091Z,38.20
2023-05-21T10:05:04.155Z,38.20
2023-05-21T10:07:32.024Z,38.10
2023-05-21T10:09:59.962Z,38.10
2023-05-21T10:12:27.830Z,38.00
2023-05-21T10:14:55.526Z,38.10
2023-05-21T10:17:23.206Z,38.10
2023-05-21T10:19:57.961Z,38.00
2023-05-21T10:22:25.647Z,37.90
2023-05-21T10:24:53.396Z,37.80
2023-05-21T10:27:21.477Z,37.80
2023-05-21T10:29:49.105Z,37.70
2023-05-21T10:32:16.918Z,37.70
2023-05-21T10:34:45.044Z,37.60
2023-05-21T10:37:12.811Z,37.50
2023-05-21T10:39:40.509Z,37.40
2023-05-21T10:42:08.447Z,37.40
2023-05-21T10:44:36.256Z,37.30
2023-05-21T10:47:04.278Z,37.20
2023-05-21T10:49:32.218Z,37.20
2023-05-21T10:51:59.824Z,37.00
2023-05-21T10:54:27.536Z,36.90
2023-05-21T10:56:55.470Z,36.80
2023-05-21T10:59:23.216Z,36.80
2023-05-21T11:01:51.024Z,36.60
2023-05-21T11:04:19.085Z,36.60
2023-05-21T11:06:46.765Z,36.50
2023-05-21T11:09:14.504Z,36.40
2023-05-21T11:11:42.298Z,36.30
2023-05-21T11:14:11.255Z,36.10
2023-05-21T11:16:39.032Z,35.90
2023-05-21T11:19:07.333Z,35.90
2023-05-21T11:21:35.098Z,35.70
2023-05-21T11:24:02.855Z,35.70
2023-05-21T11:26:30.846Z,35.70
2023-05-21T11:28:58.569Z,35.70
2023-05-21T11:31:26.370Z,35.60
2023-05-21T11:33:54.968Z,35.60
2023-05-21T11:36:22.640Z,35.50
2023-05-21T11:38:50.350Z,35.40
2023-05-21T11:41:18.619Z,35.40
2023-05-21T11:43:46.268Z,35.30
2023-05-21T11:46:19.713Z,35.30
2023-05-21T11:48:47.620Z,35.30
2023-05-21T11:51:15.280Z,35.30
2023-05-21T11:53:44.665Z,35.20
2023-05-21T11:56:12.451Z,35.20
2023-05-21T11:58:40.118Z,35.10
2023-05-21T12:01:08.312Z,35.00
2023-05-21T12:03:36.107Z,35.00
2023-05-21T12:06:03.926Z,35.10
2023-05-21T12:08:32.132Z,35.10
2023-05-21T12:10:59.828Z,35.10
2023-05-21T12:13:27.592Z,35.00
2023-05-21T12:15:55.610Z,35.00
2023-05-21T12:18:23.345Z,34.80
2023-05-21T12:20:51.040Z,34.90
2023-05-21T12:23:19.727Z,34.80
2023-05-21T12:25:47.587Z,34.80
2023-05-21T12:28:15.306Z,34.70
2023-05-21T12:30:43.292Z,34.70
2023-05-21T12:33:11.235Z,34.70
2023-05-21T12:35:39.143Z,34.70
2023-05-21T12:38:07.838Z,34.70
2023-05-21T12:40:36.055Z,34.70
2023-05-21T12:43:04.397Z,34.50
2023-05-21T12:45:32.116Z,34.50
2023-05-21T12:47:59.875Z,34.40
2023-05-21T12:50:27.694Z,34.50
2023-05-21T12:52:55.548Z,34.50
2023-05-21T12:55:23.267Z,34.50
2023-05-21T12:57:50.930Z,34.40
2023-05-21T13:00:18.673Z,34.40
2023-05-21T13:02:46.406Z,34.30
2023-05-21T13:05:14.140Z,34.40
2023-05-21T13:07:42.382Z,34.30
2023-05-21T13:10:10.282Z,34.30
2023-05-21T13:12:38.026Z,34.30
2023-05-21T13:15:05.894Z,34.20
2023-05-21T13:17:33.566Z,34.20
2023-05-21T13:20:01.314Z,34.10
2023-05-21T13:22:29.352Z,34.20
2023-05-21T13:24:57.052Z,34.30
2023-05-21T13:27:25.056Z,34.20
2023-05-21T13:29:53.633Z,34.20
2023-05-21T13:32:21.364Z,34.20
2023-05-21T13:34:49.128Z,34.30
2023-05-21T13:37:17.457Z,34.20
2023-05-21T13:39:45.197Z,34.30
2023-05-21T13:42:12.963Z,34.20
2023-05-21T13:44:40.991Z,34.10
2023-05-21T13:47:08.740Z,34.00
2023-05-21T13:49:36.496Z,33.90
2023-05-21T13:52:04.753Z,33.80
2023-05-21T13:54:32.501Z,33.80
2023-05-21T13:57:00.200Z,33.70
2023-05-21T13:59:29.620Z,33.70
2023-05-21T14:01:58.615Z,33.70
2023-05-21T14:04:26.360Z,33.70
2023-05-21T14:06:54.307Z,33.60
2023-05-21T14:09:21.975Z,33.60
2023-05-21T14:11:49.676Z,33.60
2023-05-21T14:14:17.627Z,33.60
2023-05-21T14:16:45.437Z,33.50
2023-05-21T14:19:13.153Z,33.40
2023-05-21T14:21:41.094Z,33.50
2023-05-21T14:24:08.856Z,33.50
2023-05-21T14:26:36.503Z,33.40
2023-05-21T14:29:04.858Z,33.30
2023-05-21T14:31:32.738Z,33.40
2023-05-21T14:34:00.508Z,33.30
2023-05-21T14:36:28.449Z,33.30
2023-05-21T14:38:56.162Z,33.30
2023-05-21T14:41:23.938Z,33.30
2023-05-21T14:43:52.189Z,33.20
2023-05-21T14:46:19.918Z,33.20
2023-05-21T14:48:47.649Z,33.10
2023-05-21T14:51:15.682Z,33.10
2023-05-21T14:53:43.528Z,33.10
2023-05-21T14:56:11.262Z,33.10
2023-05-21T14:58:39.350Z,32.90
2023-05-21T15:01:07.099Z,33.10
2023-05-21T15:03:35.152Z,33.10
2023-05-21T15:06:03.112Z,33.10
2023-05-21T15:08:30.921Z,33.00
2023-05-21T15:10:58.717Z,33.00
2023-05-21T15:13:26.882Z,33.10
2023-05-21T15:15:54.894Z,33.10
2023-05-21T15:18:22.620Z,33.10
2023-05-21T15:20:50.698Z,33.00
2023-05-21T15:23:18.454Z,33.00
2023-05-21T15:25:46.140Z,33.00
2023-05-21T15:28:13.955Z,33.00
2023-05-21T15:30:41.681Z,33.00
2023-05-21T15:33:09.364Z,33.00
2023-05-21T15:35:37.985Z,33.00
2023-05-21T15:38:05.976Z,33.00
2023-05-21T15:40:33.940Z,32.90
2023-05-21T15:43:01.983Z,33.00
2023-05-21T15:45:29.736Z,33.00
2023-05-21T15:47:57.711Z,33.00
2023-05-21T15:50:25.652Z,32.90
2023-05-21T15:52:53.757Z,32.80
2023-05-21T15:55:21.435Z,32.80
2023-05-21T15:57:49.408Z,32.70
2023-05-21T16:00:17.137Z,32.80
2023-05-21T16:02:44.862Z,32.80
2023-05-21T16:05:13.022Z,32.70
2023-05-21T16:07:40.707Z,32.60
2023-05-21T16:10:08.345Z,32.60
2023-05-21T16:12:36.594Z,32.50
2023-05-21T16:15:04.317Z,32.50
2023-05-21T16:17:32.207Z,32.50
2023-05-21T16:20:00.386Z,32.50
2023-05-21T16:22:28.091Z,32.40
2023-05-21T16:24:55.815Z,32.40
2023-05-21T16:27:23.763Z,32.50
2023-05-21T16:29:51.413Z,32.50
2023-05-21T16:32:19.248Z,32.50
2023-05-21T16:34:47.229Z,32.40
2023-05-21T16:37:14.946Z,32.40
2023-05-21T16:39:42.709Z,32.40
2023-05-21T16:42:10.851Z,32.40
2023-05-21T16:44:38.506Z,32.40
2023-05-21T16:47:06.177Z,32.40
2023-05-21T16:49:34.567Z,32.40
2023-05-21T16:52:02.192Z,32.30
2023-05-21T16:54:29.914Z,32.20
2023-05-21T16:56:58.077Z,32.10
2023-05-21T16:59:25.838Z,32.10
2023-05-21T17:01:54.553Z,32.00
2023-05-21T17:04:22.494Z,32.00
2023-05-21T17:06:50.154Z,31.80
2023-05-21T17:09:18.785Z,31.90
2023-05-21T17:11:47.006Z,31.90
2023-05-21T17:14:23.299Z,32.00
2023-05-21T17:16:54.957Z,32.00
2023-05-21T17:19:23.186Z,31.90
2023-05-21T17:21:50.871Z,31.80
2023-05-21T17:24:19.022Z,31.70
2023-05-21T17:26:46.789Z,31.80
2023-05-21T17:29:14.511Z,31.80
2023-05-21T17:31:42.382Z,31.80
2023-05-21T17:34:10.100Z,31.80
2023-05-21T17:36:37.817Z,31.70
2023-05-21T17:39:05.796Z,31.60
2023-05-21T17:41:33.642Z,31.50
2023-05-21T17:44:01.427Z,31.60
2023-05-21T17:46:29.464Z,31.50
2023-05-21T17:48:57.344Z,31.40
2023-05-21T17:51:25.037Z,31.40
2023-05-21T17:53:52.901Z,31.60
2023-05-21T17:56:20.641Z,31.50
2023-05-21T17:58:48.397Z,31.50
2023-05-21T18:01:16.763Z,31.60
2023-05-21T18:03:50.878Z,31.50
2023-05-21T18:06:20.930Z,31.50
2023-05-21T18:08:49.943Z,31.40
2023-05-21T18:11:22.613Z,31.40
2023-05-21T18:13:50.526Z,31.40
2023-05-21T18:16:18.712Z,31.50
2023-05-21T18:18:48.720Z,31.40
2023-05-21T18:21:18.538Z,31.40
2023-05-21T18:23:46.486Z,31.40
2023-05-21T18:26:15.770Z,31.30
2023-05-21T18:28:47.506Z,31.30
2023-05-21T18:31:15.274Z,31.40
2023-05-21T18:33:44.166Z,31.20
2023-05-21T18:36:12.804Z,31.20
2023-05-21T18:38:40.901Z,31.10
2023-05-21T18:41:12.592Z,31.10
2023-05-21T18:43:42.962Z,31.10
2023-05-21T18:46:10.689Z,31.00
2023-05-21T18:48:42.121Z,31.10
2023-05-21T18:51:10.213Z,31.10
2023-05-21T18:53:38.062Z,31.00
2023-05-21T18:56:07.762Z,31.00
2023-05-21T18:58:35.474Z,31.00
2023-05-21T19:01:04.360Z,30.90
2023-05-21T19:03:34.772Z,30.90
2023-05-21T19:06:02.655Z,30.90
2023-05-21T19:08:30.620Z,30.90
2023-05-21T19:10:58.837Z,30.90
2023-05-21T19:13:26.619Z,30.90
2023-05-21T19:15:56.013Z,31.00
2023-05-21T19:18:24.072Z,31.00
2023-05-21T19:20:54.503Z,30.90
2023-05-21T19:23:22.187Z,30.90
2023-05-21T19:25:56.025Z,30.90
2023-05-21T19:28:24.385Z,30.90
2023-05-21T19:30:52.617Z,30.80
2023-05-21T19:33:21.836Z,30.80
2023-05-21T19:35:49.831Z,30.80
2023-05-21T19:38:20.145Z,30.80
2023-05-21T19:40:49.790Z,30.80
2023-05-21T19:43:20.006Z,30.90
2023-05-21T19:45:50.762Z,30.70
2023-05-21T19:48:19.101Z,30.70
2023-05-21T19:50:46.858Z,30.60
2023-05-21T19:55:58.853Z,30.60
2023-05-21T19:58:27.037Z,30.60
2023-05-21T20:00:55.021Z,30.60
2023-05-21T20:03:22.690Z,30.70
2023-05-21T20:05:50.714Z,30.80
2023-05-21T20:08:36.832Z,30.70
2023-05-21T20:11:25.129Z,30.80
2023-05-21T20:14:13.030Z,30.80
2023-05-21T20:17:01.158Z,30.60
2023-05-21T20:19:49.093Z,30.60
2023-05-21T20:22:37.326Z,30.70
2023-05-21T20:25:25.264Z,30.60
2023-05-21T20:28:13.317Z,30.60
2023-05-21T20:31:01.277Z,30.60
2023-05-21T20:33:49.430Z,30.60
2023-05-21T20:36:37.342Z,30.70
2023-05-21T20:39:25.640Z,30.60
2023-05-21T20:42:13.559Z,30.70
2023-05-21T20:45:02.597Z,30.60
2023-05-21T20:47:50.564Z,30.70
2023-05-21T20:50:39.306Z,30.70
2023-05-21T20:53:27.405Z,30.60
2023-05-21T20:56:16.956Z,30.60
2023-05-21T20:59:06.843Z,30.60
2023-05-21T21:01:55.698Z,30.60
2023-05-21T21:04:43.600Z,30.60
2023-05-21T21:07:11.453Z,30.60
2023-05-21T21:09:54.637Z,30.60
2023-05-21T21:12:41.119Z,30.60
2023-05-21T21:15:19.405Z,30.60
2023-05-21T21:17:49.229Z,30.60
2023-05-21T21:20:21.257Z,30.50
2023-05-21T21:22:58.786Z,30.50
2023-05-21T21:25:28.922Z,30.60
2023-05-21T21:28:14.122Z,30.60
2023-05-21T21:30:44.011Z,30.50
2023-05-21T21:33:21.199Z,30.50
2023-05-21T21:35:56.112Z,30.60
2023-05-21T21:38:30.660Z,30.50
2023-05-21T21:41:00.666Z,30.50
2023-05-21T21:43:34.367Z,30.40
2023-05-21T21:46:04.231Z,30.40
2023-05-21T21:48:32.814Z,30.40
2023-05-21T21:51:03.775Z,30.50
2023-05-21T21:53:32.716Z,30.50
2023-05-21T21:56:00.539Z,30.40
2023-05-21T21:58:28.526Z,30.50
2023-05-21T22:00:58.535Z,30.50
2023-05-21T22:03:30.131Z,30.40
2023-05-21T22:08:54.465Z,30.40
2023-05-21T22:11:23.572Z,30.50
2023-05-21T22:13:53.205Z,30.40
2023-05-21T22:16:22.082Z,30.40
2023-05-21T22:18:51.607Z,30.50
2023-05-21T22:21:19.821Z,30.40
2023-05-21T22:23:48.111Z,30.30
2023-05-21T22:26:16.482Z,30.40
2023-05-21T22:28:52.893Z,30.30
2023-05-21T22:31:20.908Z,30.30
2023-05-21T22:33:48.891Z,30.30
2023-05-21T22:36:18.939Z,30.30
2023-05-21T22:38:47.368Z,30.30
2023-05-21T22:41:15.896Z,30.20
2023-05-21T22:43:43.654Z,30.20
2023-05-21T22:46:12.120Z,30.20
2023-05-21T22:48:40.369Z,30.30
2023-05-21T22:51:11.071Z,30.30
2023-05-21T22:53:42.247Z,30.20
2023-05-21T22:56:10.775Z,30.20
2023-05-21T22:58:39.274Z,30.30
2023-05-21T23:01:08.625Z,30.20
2023-05-21T23:03:37.776Z,30.30
2023-05-21T23:06:06.293Z,30.30
2023-05-21T23:08:34.577Z,30.30
2023-05-21T23:11:02.529Z,30.30
2023-05-21T23:13:33.210Z,30.40
2023-05-21T23:16:01.589Z,30.20
2023-05-21T23:18:31.565Z,30.20
2023-05-21T23:20:59.536Z,30.20
2023-05-21T23:23:28.449Z,30.20
2023-05-21T23:25:56.724Z,30.30
2023-05-21T23:28:24.740Z,30.30
2023-05-21T23:30:52.888Z,30.30
2023-05-21T23:33:24.452Z,30.30
2023-05-21T23:35:53.387Z,30.40
2023-05-21T23:38:22.116Z,30.50
2023-05-21T23:40:50.300Z,30.60
2023-05-21T23:43:22.579Z,30.60
2023-05-21T23:45:52.127Z,30.60
2023-05-21T23:48:21.943Z,30.80
2023-05-21T23:50:50.283Z,30.80
2023-05-21T23:53:18.312Z,30.80
2023-05-21T23:55:45.978Z,30.80
2023-05-21T23:58:13.892Z,31.00
